Terminal Aerodrome Forecast
Issued by NWS

Home | Current Version | Previous Version | Graphics & Text | Print | Product List | Glossary On
Versions: 1 2 3 4 5 6 7 8 9 10 11 12 13 14 15 16 17 18 19 20 21 22
834
FTUS43 KUNR 051130
TAFGCC
TAF
KGCC 051130Z 0512/0612 33022G32KT 1SM -SN BR BLSN VV010
     FM051700 33018G28KT 4SM -SHSN BKN015
     FM052300 34015KT P6SM BKN030=

USA.gov is the U.S. government's official web portal to all federal, state and local government web resources and services.